createdAt,value
2023-02-08T00:01:16.503Z,80.13
2023-02-08T00:06:21.048Z,81.29
2023-02-08T00:11:23.930Z,80.76
2023-02-08T00:16:27.086Z,80.54
2023-02-08T00:21:31.418Z,79.75
2023-02-08T00:26:34.362Z,80.25
2023-02-08T00:31:37.675Z,80.18
2023-02-08T00:36:42.064Z,80.79
2023-02-08T00:41:44.966Z,80.05
2023-02-08T00:46:49.495Z,80.02
2023-02-08T00:51:55.029Z,80.66
2023-02-08T00:56:57.940Z,80.24
2023-02-08T01:02:01.054Z,80.46
2023-02-08T01:07:05.852Z,79.94
2023-02-08T01:12:09.373Z,80.70
2023-02-08T01:17:12.436Z,80.00
2023-02-08T01:22:16.771Z,80.45
2023-02-08T01:27:19.680Z,79.61
2023-02-08T01:32:22.619Z,80.97
2023-02-08T01:37:26.892Z,79.94
2023-02-08T01:42:29.758Z,79.56
2023-02-08T01:47:32.957Z,79.62
2023-02-08T01:52:37.729Z,79.40
2023-02-08T01:57:41.161Z,80.91
2023-02-08T02:02:47.644Z,80.21
2023-02-08T02:07:53.135Z,79.89
2023-02-08T02:12:59.408Z,79.99
2023-02-08T02:18:03.002Z,80.46
2023-02-08T02:23:32.389Z,80.44
2023-02-08T02:29:16.241Z,80.77
2023-02-08T02:34:27.282Z,80.76
2023-02-08T02:39:38.118Z,80.39
2023-02-08T02:44:52.366Z,80.75
2023-02-08T02:50:00.654Z,80.85
2023-02-08T02:55:09.403Z,80.16
2023-02-08T03:00:19.696Z,79.69
2023-02-08T03:05:24.116Z,80.18
2023-02-08T03:10:57.292Z,80.32
2023-02-08T03:16:09.291Z,80.10
2023-02-08T03:21:21.750Z,80.27
2023-02-08T03:26:35.554Z,81.80
2023-02-08T03:31:44.218Z,80.55
2023-02-08T03:36:53.982Z,80.58
2023-02-08T03:42:01.433Z,80.40
2023-02-08T03:47:10.982Z,80.06
2023-02-08T03:52:16.202Z,79.46
2023-02-08T03:57:22.824Z,79.62
2023-02-08T04:02:28.740Z,80.76
2023-02-08T04:07:33.176Z,80.65
2023-02-08T04:12:36.194Z,81.06
2023-02-08T04:17:39.148Z,80.69
2023-02-08T04:22:43.385Z,80.08
2023-02-08T04:27:46.328Z,79.84
2023-02-08T04:32:49.232Z,80.09
2023-02-08T04:37:53.614Z,79.73
2023-02-08T04:42:56.523Z,80.14
2023-02-08T04:47:59.762Z,80.36
2023-02-08T04:53:04.086Z,79.75
2023-02-08T04:58:07.130Z,80.18
2023-02-08T05:03:10.218Z,80.61
2023-02-08T05:08:14.513Z,79.66
2023-02-08T05:13:17.437Z,79.53
2023-02-08T05:18:20.473Z,80.02
2023-02-08T05:23:25.084Z,80.18
2023-02-08T05:28:27.994Z,80.31
2023-02-08T05:33:30.855Z,79.83
2023-02-08T05:38:35.132Z,78.91
2023-02-08T05:43:38.263Z,78.88
2023-02-08T05:48:41.505Z,79.33
2023-02-08T05:53:45.751Z,79.08
2023-02-08T05:58:48.680Z,79.02
2023-02-08T06:03:51.674Z,79.70
2023-02-08T06:08:56.360Z,79.08
2023-02-08T06:13:59.369Z,79.51
2023-02-08T06:19:02.358Z,79.49
2023-02-08T06:24:07.785Z,79.06
2023-02-08T06:29:10.852Z,79.18
2023-02-08T06:34:13.808Z,80.69
2023-02-08T06:39:18.123Z,79.93
2023-02-08T06:44:21.002Z,80.06
2023-02-08T06:49:23.957Z,79.97
2023-02-08T06:54:28.342Z,79.63
2023-02-08T06:59:31.342Z,79.45
2023-02-08T07:04:34.239Z,79.40
2023-02-08T07:09:38.557Z,79.62
2023-02-08T07:14:43.683Z,78.40
2023-02-08T07:19:46.558Z,79.42
2023-02-08T07:24:50.848Z,78.48
2023-02-08T07:29:53.833Z,78.95
2023-02-08T07:34:56.761Z,79.64
2023-02-08T07:40:01.056Z,79.66
2023-02-08T07:45:04.389Z,78.39
2023-02-08T07:50:08.009Z,78.10
2023-02-08T07:55:16.897Z,77.11
2023-02-08T08:00:20.353Z,76.64
2023-02-08T08:05:23.642Z,75.64
2023-02-08T08:10:27.933Z,75.98
2023-02-08T08:15:31.151Z,74.58
2023-02-08T08:20:34.268Z,75.50
2023-02-08T08:25:39.868Z,75.80
2023-02-08T08:30:44.981Z,76.19
2023-02-08T08:35:47.976Z,75.54
2023-02-08T08:40:52.219Z,76.11
2023-02-08T08:45:55.122Z,75.09
2023-02-08T08:50:58.011Z,75.93
2023-02-08T08:56:02.474Z,74.32
2023-02-08T09:01:05.446Z,78.63
2023-02-08T09:06:08.545Z,76.27
2023-02-08T09:11:15.221Z,73.80
2023-02-08T09:16:19.062Z,72.94
2023-02-08T09:21:24.745Z,73.25
2023-02-08T09:26:29.671Z,71.28
2023-02-08T09:31:35.457Z,73.02
2023-02-08T09:36:41.213Z,71.31
2023-02-08T09:42:13.934Z,68.62
2023-02-08T09:47:22.514Z,69.56
2023-02-08T09:52:34.330Z,69.33
2023-02-08T09:57:40.413Z,69.02
2023-02-08T10:02:45.035Z,68.49
2023-02-08T10:07:48.360Z,68.36
2023-02-08T10:13:03.669Z,67.55
2023-02-08T10:18:26.263Z,67.45
2023-02-08T10:23:48.965Z,67.67
2023-02-08T10:29:04.798Z,66.49
2023-02-08T10:34:21.237Z,65.38
2023-02-08T10:39:29.305Z,65.42
2023-02-08T10:44:37.904Z,65.26
2023-02-08T10:49:50.191Z,64.14
2023-02-08T10:54:54.224Z,65.30
2023-02-08T11:00:03.163Z,63.56
2023-02-08T11:05:08.989Z,62.63
2023-02-08T11:10:22.984Z,62.68
2023-02-08T11:15:39.715Z,62.42
2023-02-08T11:20:42.800Z,61.14
2023-02-08T11:25:45.677Z,60.97
2023-02-08T11:30:56.809Z,60.72
2023-02-08T11:36:08.395Z,59.98
2023-02-08T11:41:19.008Z,60.01
2023-02-08T11:46:26.436Z,59.57
2023-02-08T11:51:32.363Z,58.94
2023-02-08T11:56:36.275Z,58.14
2023-02-08T12:01:42.806Z,59.15
2023-02-08T12:07:14.847Z,58.62
2023-02-08T12:12:26.920Z,59.09
2023-02-08T12:18:00.544Z,58.78
2023-02-08T12:23:29.630Z,58.96
2023-02-08T12:28:46.769Z,58.43
2023-02-08T12:34:03.086Z,58.10
2023-02-08T12:39:44.527Z,59.41
2023-02-08T12:45:03.970Z,59.14
2023-02-08T12:50:19.950Z,58.98
2023-02-08T12:55:26.834Z,59.27
2023-02-08T13:00:33.420Z,58.22
2023-02-08T13:05:50.751Z,58.25
2023-02-08T13:11:18.901Z,58.84
2023-02-08T13:16:26.222Z,58.65
2023-02-08T13:21:37.975Z,60.24
2023-02-08T13:26:41.853Z,59.32
2023-02-08T13:31:50.377Z,60.21
2023-02-08T13:36:59.620Z,60.40
2023-02-08T13:42:04.688Z,59.63
2023-02-08T13:47:08.959Z,59.67
2023-02-08T13:52:46.328Z,60.21
2023-02-08T13:57:55.967Z,60.05
2023-02-08T14:03:00.369Z,59.38
2023-02-08T14:08:05.140Z,58.63
2023-02-08T14:13:26.204Z,59.14
2023-02-08T14:18:29.795Z,58.78
2023-02-08T14:23:36.506Z,58.79
2023-02-08T14:28:45.780Z,59.44
2023-02-08T14:33:55.085Z,60.38
2023-02-08T14:39:22.422Z,60.41
2023-02-08T14:45:00.656Z,60.59
2023-02-08T14:50:15.024Z,61.91
2023-02-08T14:55:26.582Z,61.78
2023-02-08T15:00:35.671Z,62.03
2023-02-08T15:05:45.550Z,61.77
2023-02-08T15:10:48.584Z,62.61
2023-02-08T15:15:56.457Z,63.29
2023-02-08T15:21:04.818Z,62.58
2023-02-08T15:26:21.508Z,62.60
2023-02-08T15:31:31.136Z,63.23
2023-02-08T15:36:37.396Z,64.05
2023-02-08T15:41:40.347Z,63.97
2023-02-08T15:46:45.489Z,64.76
2023-02-08T15:51:50.537Z,64.10
2023-02-08T15:57:01.018Z,63.56
2023-02-08T16:02:19.764Z,65.06
2023-02-08T16:07:29.652Z,65.90
2023-02-08T16:12:33.464Z,66.89
2023-02-08T16:17:44.419Z,65.53
2023-02-08T16:22:55.874Z,66.66
2023-02-08T16:27:58.992Z,66.17
2023-02-08T16:33:08.856Z,67.06
2023-02-08T16:38:18.986Z,67.04
2023-02-08T16:43:28.805Z,67.51
2023-02-08T16:48:36.189Z,67.45
2023-02-08T16:53:42.272Z,68.90
2023-02-08T16:58:45.703Z,74.62
2023-02-08T17:03:52.895Z,70.82
2023-02-08T17:08:56.278Z,71.46
2023-02-08T17:13:59.798Z,70.53
2023-02-08T17:19:05.231Z,70.85
2023-02-08T17:24:08.215Z,72.19
2023-02-08T17:29:12.733Z,71.70
2023-02-08T17:34:17.782Z,71.81
2023-02-08T17:39:20.735Z,72.15
2023-02-08T17:44:23.607Z,72.32
2023-02-08T17:49:30.290Z,72.66
2023-02-08T17:54:33.278Z,73.43
2023-02-08T17:59:36.167Z,73.66
2023-02-08T18:04:40.526Z,73.87
2023-02-08T18:09:43.512Z,73.31
2023-02-08T18:14:46.686Z,74.71
2023-02-08T18:19:52.388Z,74.93
2023-02-08T18:24:56.209Z,75.16
2023-02-08T18:29:59.139Z,76.00
2023-02-08T18:35:04.446Z,75.38
2023-02-08T18:40:10.214Z,75.50
2023-02-08T18:45:13.111Z,75.81
2023-02-08T18:50:17.544Z,76.71
2023-02-08T18:55:20.500Z,77.92
2023-02-08T19:00:23.814Z,77.86
2023-02-08T19:05:28.141Z,77.40
2023-02-08T19:10:31.248Z,77.49
2023-02-08T19:15:36.335Z,78.00
2023-02-08T19:20:40.679Z,77.52
2023-02-08T19:25:43.827Z,78.82
2023-02-08T19:30:46.913Z,78.25
2023-02-08T19:35:51.224Z,77.53
2023-02-08T19:40:54.798Z,77.73
2023-02-08T19:45:57.866Z,77.41
2023-02-08T19:51:02.214Z,77.45
2023-02-08T19:56:08.121Z,76.44
2023-02-08T20:01:13.856Z,76.45
2023-02-08T20:06:20.660Z,76.25
2023-02-08T20:11:24.933Z,76.24
2023-02-08T20:16:31.696Z,75.38
2023-02-08T20:21:39.712Z,76.89
2023-02-08T20:26:44.592Z,77.44
2023-02-08T20:31:52.055Z,77.96
2023-02-08T20:37:11.644Z,77.84
2023-02-08T20:42:14.612Z,77.80
2023-02-08T20:47:19.194Z,78.57
2023-02-08T20:52:23.558Z,78.46
2023-02-08T20:57:26.612Z,78.08
2023-02-08T21:02:29.584Z,78.31
2023-02-08T21:07:33.933Z,78.16
2023-02-08T21:12:37.873Z,78.51
2023-02-08T21:17:41.252Z,77.17
2023-02-08T21:22:45.687Z,77.35
2023-02-08T21:27:48.667Z,78.02
2023-02-08T21:32:51.621Z,78.58
2023-02-08T21:37:55.900Z,77.79
2023-02-08T21:42:58.812Z,76.37
2023-02-08T21:48:01.745Z,76.85
2023-02-08T21:53:23.474Z,78.51
2023-02-08T21:58:26.705Z,79.03
2023-02-08T22:03:30.626Z,78.22
2023-02-08T22:08:34.888Z,78.42
2023-02-08T22:13:37.810Z,78.10
2023-02-08T22:18:41.464Z,78.67
2023-02-08T22:23:45.742Z,77.94
2023-02-08T22:28:48.712Z,78.88
2023-02-08T22:33:53.595Z,79.14
2023-02-08T22:38:57.891Z,79.18
2023-02-08T22:44:00.866Z,79.01
2023-02-08T22:49:04.076Z,78.61
2023-02-08T22:54:08.373Z,78.18
2023-02-08T22:59:11.435Z,78.64
2023-02-08T23:04:14.372Z,78.95
2023-02-08T23:09:18.821Z,79.22
2023-02-08T23:14:21.838Z,79.28
2023-02-08T23:19:24.949Z,79.26
2023-02-08T23:24:29.233Z,79.63
2023-02-08T23:29:32.131Z,79.46
2023-02-08T23:34:35.528Z,78.65
2023-02-08T23:39:39.768Z,78.98
2023-02-08T23:44:42.605Z,78.78
2023-02-08T23:49:45.686Z,79.65
2023-02-08T23:54:50.171Z,80.25
2023-02-08T23:59:53.081Z,79.67
